Time;durP1;ratioP1;P1;durP2;ratioP2;P2;SDS_P1;SDS_P2;PMS_P1;PMS_P2;Temp;Humidity;BMP_temperature;BMP_pressure;BME280_temperature;BME280_humidity;BME280_pressure;Samples;Min_cycle;Max_cycle;Signal;HPM_P1;HPM_P2
2022/03/17 00:00:47;;;;;;;44.53;24.08;;;;;;;9.65;76.95;101821.50;5093049;28;20051;-68
2022/03/17 00:03:15;;;;;;;49.53;24.95;;;;;;;9.70;76.27;101822.66;5092310;28;20060;-68
2022/03/17 00:05:43;;;;;;;45.38;23.98;;;;;;;9.70;76.13;101823.50;5092569;28;20044;-68
2022/03/17 00:08:11;;;;;;;44.67;24.05;;;;;;;9.68;76.24;101822.94;5092828;28;20043;-68
2022/03/17 00:10:39;;;;;;;45.15;23.95;;;;;;;9.66;76.15;101825.91;5092045;28;20513;-69
2022/03/17 00:13:07;;;;;;;45.63;24.15;;;;;;;9.72;75.96;101823.28;5092887;28;20044;-69
2022/03/17 00:15:35;;;;;;;48.15;25.10;;;;;;;9.66;76.42;101825.91;5093161;28;20062;-68
2022/03/17 00:18:03;;;;;;;43.63;23.88;;;;;;;9.57;76.66;101827.34;5092311;28;20043;-68
2022/03/17 00:20:31;;;;;;;47.58;25.35;;;;;;;9.51;77.57;101822.84;5092119;28;20070;-69
2022/03/17 00:22:59;;;;;;;44.45;24.00;;;;;;;9.46;77.59;101830.94;5074873;28;20585;-69
2022/03/17 00:25:29;;;;;;;50.08;24.60;;;;;;;9.45;77.75;101832.00;5092936;28;20048;-68
2022/03/17 00:27:57;;;;;;;51.40;25.20;;;;;;;9.40;78.05;101833.56;5093252;28;20048;-69
2022/03/17 00:30:26;;;;;;;48.35;25.50;;;;;;;9.45;77.77;101832.84;5092741;28;20055;-69
2022/03/17 00:32:54;;;;;;;50.78;26.48;;;;;;;9.50;77.84;101832.13;5091805;28;20044;-69
2022/03/17 00:38:13;;;;;;;51.50;26.45;;;;;;;9.47;78.12;101833.44;5092692;28;20565;-68
2022/03/17 00:40:42;;;;;;;51.45;26.33;;;;;;;9.44;78.44;101839.41;5092358;28;20045;-68
2022/03/17 00:43:12;;;;;;;53.85;28.02;;;;;;;9.38;78.76;101838.44;5092211;28;20048;-68
2022/03/17 00:45:42;;;;;;;49.30;26.40;;;;;;;9.50;78.00;101841.16;5078488;28;20066;-68
2022/03/17 00:48:10;;;;;;;55.13;28.42;;;;;;;9.52;78.13;101846.34;5091904;28;20406;-68
2022/03/17 00:50:38;;;;;;;52.20;27.60;;;;;;;9.59;78.25;101849.81;5074083;28;20065;-68
2022/03/17 00:53:06;;;;;;;50.05;27.63;;;;;;;9.50;78.54;101832.13;5092459;28;20402;-68
2022/03/17 00:55:34;;;;;;;54.28;29.25;;;;;;;9.49;78.38;101834.00;5092256;28;20058;-68
2022/03/17 00:58:01;;;;;;;58.90;29.10;;;;;;;9.57;77.71;101838.28;5092253;28;20056;-68
2022/03/17 01:00:29;;;;;;;52.88;28.30;;;;;;;9.57;77.91;101840.19;5092816;28;20482;-69
2022/03/17 01:02:57;;;;;;;62.33;31.50;;;;;;;9.50;78.06;101834.84;5092784;28;20043;-69
2022/03/17 01:05:26;;;;;;;53.35;29.23;;;;;;;9.47;78.42;101838.06;5092710;28;20495;-68
2022/03/17 01:07:54;;;;;;;53.38;27.88;;;;;;;9.46;78.43;101836.41;5092262;28;20390;-68
2022/03/17 01:10:23;;;;;;;54.60;28.60;;;;;;;9.38;78.82;101827.50;5091289;28;20040;-68
2022/03/17 01:12:51;;;;;;;55.20;29.45;;;;;;;9.35;79.47;101827.16;5091544;28;20514;-68
2022/03/17 01:15:21;;;;;;;54.40;29.35;;;;;;;9.36;79.33;101837.00;5091701;28;20047;-68
2022/03/17 01:17:49;;;;;;;55.78;29.25;;;;;;;9.36;79.04;101835.13;5092924;28;20043;-68
2022/03/17 01:20:17;;;;;;;57.17;29.20;;;;;;;9.33;79.55;101826.59;5092670;28;20427;-68
2022/03/17 01:22:45;;;;;;;60.15;32.58;;;;;;;9.33;80.01;101821.13;5091610;28;20040;-68
2022/03/17 01:25:26;;;;;;;63.70;30.73;;;;;;;9.40;79.84;101819.06;5075288;28;20055;-68
2022/03/17 01:27:54;;;;;;;59.67;30.98;;;;;;;9.26;79.96;101822.09;5092606;28;20475;-68
2022/03/17 01:30:22;;;;;;;58.28;31.23;;;;;;;9.37;79.63;101812.19;5091834;28;20059;-68
2022/03/17 01:32:49;;;;;;;59.40;31.08;;;;;;;9.39;80.13;101820.97;5092519;28;20044;-68
2022/03/17 01:35:19;;;;;;;61.15;33.30;;;;;;;9.35;80.40;101819.81;5091459;28;20058;-68
2022/03/17 01:37:46;;;;;;;56.72;30.50;;;;;;;9.35;80.52;101813.50;5091713;28;20055;-68
2022/03/17 01:40:14;;;;;;;66.32;32.72;;;;;;;9.33;80.28;101821.13;5092279;28;20032;-68
2022/03/17 01:42:43;;;;;;;72.28;33.80;;;;;;;9.29;80.63;101815.28;5091328;28;20056;-68
2022/03/17 01:45:11;;;;;;;59.67;32.97;;;;;;;9.43;80.13;101815.03;5092194;28;20502;-68
2022/03/17 01:47:39;;;;;;;55.97;29.88;;;;;;;9.43;79.98;101804.91;5091607;28;20048;-68
2022/03/17 01:50:10;;;;;;;59.85;32.08;;;;;;;9.44;79.45;101812.06;5091693;28;20044;-68
2022/03/17 01:52:39;;;;;;;61.70;30.98;;;;;;;9.46;79.47;101809.91;5092213;28;20044;-67
2022/03/17 01:55:08;;;;;;;59.72;32.17;;;;;;;9.39;79.84;101815.50;5091278;28;20048;-68
2022/03/17 01:57:36;;;;;;;61.60;32.80;;;;;;;9.43;79.38;101815.03;5091532;28;20052;-68
2022/03/17 02:00:06;;;;;;;64.05;32.80;;;;;;;9.44;79.19;101811.22;5091279;28;20063;-68
2022/03/17 02:02:41;;;;;;;60.63;31.13;;;;;;;9.40;79.46;101806.22;5091394;28;20055;-68
2022/03/17 02:05:09;;;;;;;64.40;31.63;;;;;;;9.39;79.39;101807.31;5074207;28;20055;-68
2022/03/17 02:07:39;;;;;;;59.47;31.05;;;;;;;9.39;79.33;101804.56;5090948;28;20040;-68
2022/03/17 02:10:08;;;;;;;56.97;31.13;;;;;;;9.38;79.33;101807.53;5091910;28;20382;-68
2022/03/17 02:15:26;;;;;;;59.95;31.25;;;;;;;9.34;79.08;101809.94;5079752;28;20100;-68
2022/03/17 02:17:55;;;;;;;66.65;32.85;;;;;;;9.45;78.54;101801.94;5091895;28;20047;-68
2022/03/17 02:20:25;;;;;;;65.95;33.20;;;;;;;9.45;77.97;101800.06;5091850;28;20055;-68
2022/03/17 02:25:33;;;;;;;63.47;33.58;;;;;;;9.49;77.68;101803.13;5093130;28;20055;-68
2022/03/17 02:25:47;;;;;;;62.60;32.20;;;;;;;9.52;77.62;101797.16;5095656;28;20059;-68
2022/03/17 02:28:16;;;;;;;66.70;34.50;;;;;;;9.53;76.60;101796.09;5095179;28;20052;-68
2022/03/17 02:30:45;;;;;;;63.08;31.17;;;;;;;9.61;76.38;101801.19;5094888;28;20143;-68
2022/03/17 02:33:16;;;;;;;55.88;30.55;;;;;;;9.64;75.95;101797.16;5095706;28;20044;-68
2022/03/17 02:35:47;;;;;;;58.30;32.70;;;;;;;9.67;75.87;101808.41;5095941;28;20051;-68
2022/03/17 02:38:16;;;;;;;62.35;33.65;;;;;;;9.61;76.05;101803.94;5094779;28;20055;-68
2022/03/17 02:40:46;;;;;;;67.93;32.63;;;;;;;9.70;75.60;101796.16;5095674;28;20414;-68
2022/03/17 02:43:18;;;;;;;67.53;33.33;;;;;;;9.75;75.10;101801.72;5095463;28;20051;-68
2022/03/17 02:45:47;;;;;;;57.65;31.83;;;;;;;9.70;75.85;101793.44;5094825;28;20075;-68
2022/03/17 02:48:16;;;;;;;59.97;31.90;;;;;;;9.70;76.48;101809.84;5094827;28;20052;-68
2022/03/17 02:50:45;;;;;;;59.35;32.50;;;;;;;9.66;76.98;101800.44;5095407;28;20043;-68
2022/03/17 02:53:15;;;;;;;63.33;30.05;;;;;;;9.64;76.82;101808.06;5094594;28;20499;-68
2022/03/17 02:55:44;;;;;;;62.78;32.30;;;;;;;9.57;77.28;101800.00;5094623;28;20406;-68
2022/03/17 02:58:13;;;;;;;65.38;32.33;;;;;;;9.61;77.15;101809.38;5095397;28;20040;-68
2022/03/17 03:00:42;;;;;;;63.83;32.67;;;;;;;9.46;77.95;101806.34;5095159;28;20386;-68
2022/03/17 03:03:10;;;;;;;61.85;33.03;;;;;;;9.26;79.29;101800.22;5093728;28;20040;-68
2022/03/17 03:05:40;;;;;;;65.18;32.75;;;;;;;9.19;80.26;101804.97;5094458;28;20060;-68
2022/03/17 03:08:08;;;;;;;62.47;34.08;;;;;;;9.05;81.81;101804.41;5094356;28;20044;-68
2022/03/17 03:10:36;;;;;;;65.85;34.00;;;;;;;9.00;81.89;101796.13;5094083;28;20044;-68
2022/03/17 03:13:04;;;;;;;64.15;35.03;;;;;;;8.89;82.88;101800.50;5093594;28;20044;-68
2022/03/17 03:15:32;;;;;;;68.80;35.88;;;;;;;8.84;83.21;101803.09;5092810;28;20414;-68
2022/03/17 03:18:00;;;;;;;65.18;35.25;;;;;;;8.78;83.88;101807.63;5092773;28;20048;-68
2022/03/17 03:20:28;;;;;;;72.13;37.75;;;;;;;8.74;84.67;101799.09;5075368;28;20489;-68
2022/03/17 03:22:57;;;;;;;75.85;37.75;;;;;;;8.72;84.60;101812.16;5093238;28;20481;-68
2022/03/17 03:25:24;;;;;;;75.72;38.17;;;;;;;8.77;84.34;101807.88;5094874;28;20048;-68
2022/03/17 03:27:52;;;;;;;71.07;36.78;;;;;;;8.68;85.22;101801.94;5093849;28;20052;-68
2022/03/17 03:30:20;;;;;;;70.68;35.63;;;;;;;8.63;85.02;101808.09;5076287;28;20607;-68
2022/03/17 03:32:49;;;;;;;73.78;35.15;;;;;;;8.68;84.90;101807.38;5093908;28;20479;-68
2022/03/17 03:38:04;;;;;;;76.80;36.47;;;;;;;8.64;85.17;101811.69;5086005;28;20040;-68
2022/03/17 03:40:31;;;;;;;78.97;37.55;;;;;;;8.67;85.65;101808.47;5092471;28;20044;-68
2022/03/17 03:42:59;;;;;;;80.70;38.70;;;;;;;8.67;85.36;101808.47;5087658;28;20047;-68
2022/03/17 03:45:28;;;;;;;73.50;36.97;;;;;;;8.68;84.86;101804.66;5092951;28;20051;-68
2022/03/17 03:47:56;;;;;;;72.35;37.25;;;;;;;8.57;85.56;101798.94;5094117;28;20037;-68
2022/03/17 03:50:25;;;;;;;75.57;37.63;;;;;;;8.69;85.33;101801.69;5093997;28;20048;-67
2022/03/17 03:52:53;;;;;;;75.10;39.20;;;;;;;8.73;85.33;101805.63;5092633;28;20048;-68
2022/03/17 03:55:21;;;;;;;76.32;39.08;;;;;;;8.71;85.21;101805.00;5091911;28;20055;-68
2022/03/17 03:57:50;;;;;;;75.45;38.22;;;;;;;8.63;85.62;101801.81;5091446;28;20055;-68
2022/03/17 04:00:33;;;;;;;78.80;38.83;;;;;;;8.58;85.87;101806.09;5092267;28;20055;-68
2022/03/17 04:03:03;;;;;;;76.05;38.95;;;;;;;8.55;86.28;101809.28;5092496;28;20079;-68
2022/03/17 04:05:33;;;;;;;75.10;38.92;;;;;;;8.50;86.34;101814.56;5086008;28;20060;-68
2022/03/17 04:08:02;;;;;;;76.75;38.00;;;;;;;8.59;86.11;101809.63;5091461;28;20040;-68
2022/03/17 04:10:30;;;;;;;76.85;38.30;;;;;;;8.60;85.94;101808.56;5093667;28;20056;-68
2022/03/17 04:12:58;;;;;;;86.30;40.70;;;;;;;8.58;86.09;101817.00;5080890;28;20418;-68
2022/03/17 04:15:27;;;;;;;73.97;37.58;;;;;;;8.65;85.95;101816.06;5093794;28;20524;-68
2022/03/17 04:17:55;;;;;;;77.28;39.15;;;;;;;8.64;85.88;101815.22;5092611;28;20044;-68
2022/03/17 04:20:23;;;;;;;85.75;40.08;;;;;;;8.60;86.46;101819.47;5093565;28;20044;-68
2022/03/17 04:22:51;;;;;;;80.38;39.28;;;;;;;8.59;86.42;101810.47;5092385;28;20067;-68
2022/03/17 04:25:19;;;;;;;79.10;39.03;;;;;;;8.71;85.99;101812.38;5092899;28;20059;-68
2022/03/17 04:27:47;;;;;;;79.10;38.22;;;;;;;8.78;85.78;101818.56;5092796;28;20052;-68
2022/03/17 04:30:14;;;;;;;82.75;40.67;;;;;;;8.87;84.75;101817.13;5091361;28;20040;-68
2022/03/17 04:32:42;;;;;;;77.63;39.33;;;;;;;8.93;84.59;101811.78;5092492;28;20048;-68
2022/03/17 04:35:10;;;;;;;75.35;39.08;;;;;;;9.04;84.29;101808.19;5085600;28;20059;-68
2022/03/17 04:37:38;;;;;;;74.13;39.47;;;;;;;9.14;83.56;101819.34;5093345;28;20051;-68
2022/03/17 04:40:07;;;;;;;80.20;38.33;;;;;;;9.25;82.17;101819.59;5092323;28;20048;-68
2022/03/17 04:42:37;;;;;;;68.05;35.58;;;;;;;9.29;81.93;101812.53;5092539;28;20387;-68
2022/03/17 04:45:06;;;;;;;70.22;37.97;;;;;;;9.19;82.56;101828.75;5091418;28;20059;-68
2022/03/17 04:47:34;;;;;;;72.45;38.47;;;;;;;9.07;83.09;101820.53;5078161;28;20047;-68
2022/03/17 04:50:02;;;;;;;80.50;38.25;;;;;;;9.10;83.14;101820.91;5085807;28;20848;-68
2022/03/17 04:55:16;;;;;;;71.03;37.45;;;;;;;8.87;84.83;101825.34;5091811;28;20514;-68
2022/03/17 04:57:44;;;;;;;71.80;37.35;;;;;;;9.09;83.29;101832.91;5074536;28;20410;-68
2022/03/17 05:00:13;;;;;;;75.65;38.08;;;;;;;9.09;84.20;101832.09;5091903;28;20047;-68
2022/03/17 05:02:40;;;;;;;69.68;35.90;;;;;;;9.05;84.49;101826.25;5089654;28;20043;-68
2022/03/17 05:05:09;;;;;;;73.38;38.03;;;;;;;9.00;84.77;101828.88;5085896;28;20049;-68
2022/03/17 05:07:36;;;;;;;73.95;37.45;;;;;;;8.82;84.91;101833.41;5091013;28;20048;-68
2022/03/17 05:10:05;;;;;;;74.60;37.03;;;;;;;8.75;85.48;101832.66;5091396;28;20047;-68
2022/03/17 05:12:33;;;;;;;72.95;35.85;;;;;;;8.57;86.01;101836.34;5092471;28;20501;-68
2022/03/17 05:15:01;;;;;;;76.68;37.67;;;;;;;8.56;85.82;101832.75;5091234;28;20406;-68
2022/03/17 05:17:30;;;;;;;79.10;38.20;;;;;;;8.54;86.14;101834.91;5091784;28;20044;-68
2022/03/17 05:19:58;;;;;;;70.35;37.38;;;;;;;8.44;85.96;101840.91;5092072;28;20040;-68
2022/03/17 05:22:26;;;;;;;71.72;36.55;;;;;;;8.45;86.68;101844.47;5091644;28;20051;-68
2022/03/17 05:24:54;;;;;;;70.35;36.33;;;;;;;8.44;86.38;101845.53;5090233;28;20055;-68
2022/03/17 05:27:22;;;;;;;73.78;36.25;;;;;;;8.39;86.36;101850.84;5088682;28;20095;-68
2022/03/17 05:29:50;;;;;;;70.82;37.67;;;;;;;8.42;86.89;101861.31;5090493;28;20040;-68
2022/03/17 05:32:18;;;;;;;72.45;38.05;;;;;;;8.44;86.78;101854.56;5091082;28;20040;-68
2022/03/17 05:34:46;;;;;;;68.57;35.42;;;;;;;8.42;86.65;101855.84;5091331;28;20044;-68
2022/03/17 05:37:13;;;;;;;67.05;35.10;;;;;;;8.41;86.85;101852.28;5091329;28;20051;-68
2022/03/17 05:39:41;;;;;;;64.70;35.75;;;;;;;8.41;86.76;101848.75;5090136;28;20529;-68
2022/03/17 05:42:09;;;;;;;71.60;36.72;;;;;;;8.42;87.11;101861.31;5088932;28;20055;-68
2022/03/17 05:44:37;;;;;;;71.47;36.03;;;;;;;8.45;86.77;101860.81;5091171;28;20040;-68
2022/03/17 05:47:05;;;;;;;67.32;36.35;;;;;;;8.44;86.49;101859.16;5097963;28;20059;-68
2022/03/17 05:49:33;;;;;;;71.90;36.15;;;;;;;8.39;87.32;101862.59;5091283;28;20051;-68
2022/03/17 05:52:01;;;;;;;72.40;35.58;;;;;;;8.49;86.36;101862.03;5085773;28;20506;-68
2022/03/17 05:54:29;;;;;;;69.30;36.30;;;;;;;8.44;86.59;101859.16;5089170;28;20048;-68
2022/03/17 05:56:57;;;;;;;72.55;35.83;;;;;;;8.66;85.55;101867.66;5084738;28;20044;-68
2022/03/17 05:59:25;;;;;;;72.13;35.55;;;;;;;8.62;85.82;101868.38;5096573;28;20067;-68
2022/03/17 06:01:53;;;;;;;71.72;36.20;;;;;;;8.55;86.36;101869.31;5090757;28;20066;-68
2022/03/17 06:04:41;;;;;;;68.93;37.15;;;;;;;8.62;86.04;101868.38;5085516;28;20055;-68
2022/03/17 06:07:10;;;;;;;77.15;36.20;;;;;;;8.90;84.93;101872.31;5084458;28;20048;-68
2022/03/17 06:09:38;;;;;;;69.97;36.47;;;;;;;9.05;83.45;101866.38;5082791;28;20488;-68
2022/03/17 06:12:08;;;;;;;71.15;37.72;;;;;;;8.94;84.60;101874.34;5083573;28;20073;-68
2022/03/17 06:14:36;;;;;;;68.43;35.53;;;;;;;9.09;83.47;101879.31;5075883;28;20430;-69
2022/03/17 06:17:04;;;;;;;71.85;35.95;;;;;;;9.14;83.26;101881.31;5090734;28;20040;-69
2022/03/17 06:19:32;;;;;;;70.65;36.20;;;;;;;8.98;84.79;101881.00;5091482;28;20036;-69
2022/03/17 06:22:00;;;;;;;70.20;34.65;;;;;;;9.10;83.34;101883.72;5091242;28;20047;-76
2022/03/17 06:24:28;;;;;;;76.05;36.42;;;;;;;9.17;83.20;101890.94;5040480;28;20050;-76
2022/03/17 06:26:56;;;;;;;67.65;34.85;;;;;;;9.24;83.15;101889.75;5039170;28;20067;-76
2022/03/17 06:29:24;;;;;;;79.68;38.13;;;;;;;9.31;82.19;101894.28;5055898;28;20398;-76
2022/03/17 06:31:52;;;;;;;67.90;35.03;;;;;;;9.36;82.57;101897.13;5036372;28;20391;-77
2022/03/17 06:34:20;;;;;;;73.47;35.65;;;;;;;9.33;82.17;101903.06;5040140;28;20044;-78
2022/03/17 06:36:48;;;;;;;73.45;36.40;;;;;;;9.43;81.84;101897.00;5073665;28;20040;-78
2022/03/17 06:39:16;;;;;;;66.60;36.15;;;;;;;9.42;81.78;101898.91;5089849;28;20040;-77
2022/03/17 06:41:43;;;;;;;68.10;36.97;;;;;;;9.44;81.59;101888.56;5077507;28;20041;-77
2022/03/17 06:44:11;;;;;;;73.20;35.90;;;;;;;9.38;82.60;101897.69;5081451;28;20478;-69
2022/03/17 06:46:40;;;;;;;69.75;35.03;;;;;;;9.17;83.41;101904.59;5088161;28;20047;-70
2022/03/17 06:49:08;;;;;;;76.80;37.80;;;;;;;9.13;83.95;101905.09;5088608;28;20389;-69
2022/03/17 06:51:36;;;;;;;74.28;37.70;;;;;;;9.14;85.17;101905.91;5087898;28;20040;-69
2022/03/17 06:54:04;;;;;;;68.88;36.72;;;;;;;8.96;84.47;101909.59;5089554;28;20044;-70
2022/03/17 06:56:32;;;;;;;70.00;37.13;;;;;;;8.92;84.63;101908.41;5086682;28;20055;-69
2022/03/17 06:59:00;;;;;;;69.70;36.55;;;;;;;8.97;85.12;101911.25;5088236;28;20036;-69
2022/03/17 07:01:32;;;;;;;72.40;37.00;;;;;;;8.94;86.17;101922.66;5089264;28;20498;-70
2022/03/17 07:04:03;;;;;;;71.80;37.60;;;;;;;9.05;85.62;101913.63;5090463;28;20051;-70
2022/03/17 07:06:31;;;;;;;65.45;36.35;;;;;;;9.35;82.91;101911.84;5090230;28;20043;-70
2022/03/17 07:08:59;;;;;;;71.93;38.30;;;;;;;9.30;83.67;101914.47;5090208;28;20505;-70
2022/03/17 07:11:27;;;;;;;70.20;36.10;;;;;;;9.27;84.34;101919.34;5092774;28;20600;-69
2022/03/17 07:13:55;;;;;;;73.82;37.65;;;;;;;9.24;83.83;101917.06;5094054;28;20162;-70
2022/03/17 07:16:23;;;;;;;70.20;37.20;;;;;;;9.28;83.93;101920.16;5093209;28;20410;-70
2022/03/17 07:18:51;;;;;;;73.68;36.50;;;;;;;9.56;82.02;101918.59;5093937;28;20036;-70
2022/03/17 07:21:19;;;;;;;69.40;37.75;;;;;;;9.59;82.74;101926.34;5092197;28;20044;-69
2022/03/17 07:23:47;;;;;;;68.00;35.55;;;;;;;9.57;81.96;101930.38;5092377;28;20044;-70
2022/03/17 07:26:15;;;;;;;78.60;37.88;;;;;;;9.48;82.55;101927.19;5092243;28;20052;-70
2022/03/17 07:28:44;;;;;;;73.80;37.63;;;;;;;9.45;83.10;101930.38;5092212;28;20048;-69
2022/03/17 07:31:15;;;;;;;79.78;38.05;;;;;;;9.48;84.48;101938.09;5092819;28;20062;-70
2022/03/17 07:33:43;;;;;;;71.63;35.72;;;;;;;9.52;82.55;101921.00;5092758;28;20463;-70
2022/03/17 07:36:13;;;;;;;70.32;36.33;;;;;;;9.66;81.63;101923.44;5093100;28;20040;-70
2022/03/17 07:38:41;;;;;;;73.85;36.90;;;;;;;9.74;81.71;101930.47;5092329;28;20036;-70
2022/03/17 07:41:10;;;;;;;69.38;36.03;;;;;;;9.93;80.06;101934.69;5090575;28;20477;-70
2022/03/17 07:43:38;;;;;;;79.20;37.83;;;;;;;10.05;79.74;101931.06;5092354;28;20036;-69
2022/03/17 07:46:26;;;;;;;74.13;39.15;;;;;;;10.15;79.17;101949.59;5084635;28;20051;-69
2022/03/17 07:49:28;;;;;;;75.93;38.00;;;;;;;10.01;80.30;101941.69;5065079;28;20044;-70
2022/03/17 07:51:56;;;;;;;77.72;37.50;;;;;;;9.99;80.93;101949.31;5092027;28;20094;-70
2022/03/17 07:54:24;;;;;;;79.65;38.78;;;;;;;10.20;79.27;101942.34;5092859;28;20040;-70
2022/03/17 07:56:52;;;;;;;71.28;38.58;;;;;;;10.20;79.24;101950.53;5093521;28;20051;-69
2022/03/17 07:59:20;;;;;;;78.53;37.47;;;;;;;10.30;79.70;101949.06;5093683;28;20050;-70
2022/03/17 08:01:48;;;;;;;77.90;37.78;;;;;;;10.40;79.73;101941.06;5092514;28;20056;-69
2022/03/17 08:04:17;;;;;;;79.28;39.47;;;;;;;10.65;77.69;101950.81;5093239;28;20048;-70
2022/03/17 08:06:45;;;;;;;76.90;37.70;;;;;;;10.47;79.06;101949.97;5093513;28;20039;-70
2022/03/17 08:09:13;;;;;;;77.80;38.40;;;;;;;10.56;79.00;101953.13;5092984;28;20380;-70
2022/03/17 08:11:40;;;;;;;81.03;38.97;;;;;;;10.81;77.79;101953.84;5079148;28;20105;-70
2022/03/17 08:14:08;;;;;;;75.90;38.63;;;;;;;10.74;76.97;101954.84;5092857;28;20056;-70
2022/03/17 08:16:37;;;;;;;77.07;37.65;;;;;;;10.67;78.12;101954.16;5093462;28;20062;-70
2022/03/17 08:19:08;;;;;;;76.03;37.08;;;;;;;10.71;78.67;101955.31;5092433;28;20059;-70
2022/03/17 08:21:36;;;;;;;77.38;37.17;;;;;;;10.85;77.87;101960.50;5092173;28;20055;-70
2022/03/17 08:24:04;;;;;;;72.40;40.53;;;;;;;10.90;78.18;101952.34;5092384;28;20048;-70
2022/03/17 08:26:32;;;;;;;76.47;39.35;;;;;;;10.79;78.51;101962.31;5092466;28;20059;-70
2022/03/17 08:29:01;;;;;;;82.45;42.65;;;;;;;10.84;79.52;101959.66;5092412;28;20063;-69
2022/03/17 08:31:30;;;;;;;76.28;39.08;;;;;;;10.99;78.36;101955.50;5093110;28;20051;-70
2022/03/17 08:33:58;;;;;;;78.63;41.63;;;;;;;10.96;77.70;101961.50;5092065;28;20394;-70
2022/03/17 08:36:26;;;;;;;77.07;39.58;;;;;;;10.94;78.41;101955.44;5093194;28;20044;-69
2022/03/17 08:38:55;;;;;;;70.80;38.60;;;;;;;11.01;77.68;101975.28;5093165;28;20047;-70
2022/03/17 08:41:23;;;;;;;74.68;37.92;;;;;;;11.19;77.41;101962.41;5092201;28;20059;-70
2022/03/17 08:43:52;;;;;;;70.00;37.28;;;;;;;11.35;76.29;101963.47;5092014;28;20062;-70
2022/03/17 08:49:19;;;;;;;75.43;39.50;;;;;;;11.42;74.44;101975.06;5077815;28;20048;-70
2022/03/17 08:51:53;;;;;;;78.30;40.40;;;;;;;11.52;73.99;101979.88;5092022;28;20059;-70
2022/03/17 08:54:23;;;;;;;74.15;38.28;;;;;;;11.45;74.53;101980.06;5092068;28;20055;-70
2022/03/17 08:56:59;;;;;;;76.50;38.63;;;;;;;11.40;75.28;101982.72;5091785;28;20502;-70
2022/03/17 08:59:33;;;;;;;76.30;38.47;;;;;;;11.45;74.61;101984.72;5092679;28;20074;-70
2022/03/17 09:02:06;;;;;;;74.43;38.45;;;;;;;11.53;74.92;101985.13;5091570;28;20486;-70
2022/03/17 09:04:35;;;;;;;72.82;37.75;;;;;;;11.65;74.09;101986.91;5091351;28;20044;-70
2022/03/17 09:07:03;;;;;;;71.80;39.17;;;;;;;11.77;73.43;101989.53;5091832;28;20044;-70
2022/03/17 09:09:33;;;;;;;76.05;37.72;;;;;;;11.74;72.06;101984.56;5091475;28;20059;-70
2022/03/17 09:12:05;;;;;;;67.72;37.30;;;;;;;11.71;72.53;101983.16;5091022;28;20052;-70
2022/03/17 09:14:36;;;;;;;69.30;36.95;;;;;;;11.66;72.25;101983.09;5092333;28;20044;-70
2022/03/17 09:17:04;;;;;;;70.20;36.90;;;;;;;11.57;73.42;101988.19;5091436;28;20048;-70
2022/03/17 09:19:32;;;;;;;64.50;36.42;;;;;;;11.61;72.37;101993.97;5090729;28;20056;-70
2022/03/17 09:22:00;;;;;;;76.00;37.47;;;;;;;11.67;72.92;101998.47;5092068;28;20051;-70
2022/03/17 09:24:30;;;;;;;72.90;37.45;;;;;;;11.61;72.40;101991.25;5092269;28;20386;-70
2022/03/17 09:26:59;;;;;;;72.68;39.33;;;;;;;11.63;72.71;101997.31;5092088;28;20040;-70
2022/03/17 09:29:30;;;;;;;76.13;39.67;;;;;;;11.67;74.12;102003.94;5091172;28;20585;-70
2022/03/17 09:31:58;;;;;;;76.45;40.15;;;;;;;11.62;73.25;102001.13;5091474;28;20040;-70
2022/03/17 09:34:27;;;;;;;76.65;39.22;;;;;;;11.55;72.73;101999.38;5091010;28;20052;-70
2022/03/17 09:36:55;;;;;;;87.13;41.83;;;;;;;11.71;74.34;101999.63;5091874;28;20036;-70
2022/03/17 09:39:45;;;;;;;72.05;39.42;;;;;;;11.75;73.14;102003.53;5091544;28;20056;-70
2022/03/17 09:42:19;;;;;;;79.47;40.65;;;;;;;11.77;72.74;102001.34;5091805;28;20040;-70
2022/03/17 09:44:52;;;;;;;83.03;41.45;;;;;;;11.75;72.92;102008.16;5090988;28;20066;-70
2022/03/17 09:47:24;;;;;;;74.60;39.13;;;;;;;11.72;73.05;102003.22;5090909;28;20364;-70
2022/03/17 09:49:53;;;;;;;76.15;39.40;;;;;;;11.86;72.99;102009.13;5090936;28;20051;-70
2022/03/17 09:52:21;;;;;;;71.72;37.75;;;;;;;11.93;72.15;102016.09;5091438;28;20036;-70
2022/03/17 09:54:52;;;;;;;74.35;39.08;;;;;;;11.74;71.57;102015.59;5091073;28;20051;-70
2022/03/17 09:57:20;;;;;;;85.20;40.53;;;;;;;11.77;73.30;102004.09;5091606;28;20040;-70
2022/03/17 09:59:53;;;;;;;80.90;42.20;;;;;;;11.79;73.50;102009.34;5090859;28;20129;-70
2022/03/17 10:02:22;;;;;;;85.70;40.30;;;;;;;11.69;74.53;102004.53;5072934;28;20502;-70
2022/03/17 10:04:50;;;;;;;73.72;39.70;;;;;;;11.74;73.06;102010.09;5090642;28;20059;-70
2022/03/17 10:07:23;;;;;;;75.68;39.28;;;;;;;11.96;72.97;102018.34;5091485;28;20032;-70
2022/03/17 10:09:51;;;;;;;74.57;39.38;;;;;;;11.98;72.63;102004.38;5090633;28;20052;-70
2022/03/17 10:12:20;;;;;;;79.35;41.05;;;;;;;12.18;72.28;102008.50;5090100;28;20052;-70
2022/03/17 10:14:50;;;;;;;73.82;38.15;;;;;;;12.07;71.43;102010.25;5090759;28;20372;-70
2022/03/17 10:17:36;;;;;;;73.40;37.65;;;;;;;12.43;69.43;102009.88;5091594;28;20044;-70
2022/03/17 10:20:18;;;;;;;63.00;36.63;;;;;;;12.35;69.11;102005.66;5090463;28;20048;-70
2022/03/17 10:22:53;;;;;;;70.90;38.92;;;;;;;12.25;71.37;102009.13;5090642;28;20445;-70
2022/03/17 10:25:26;;;;;;;70.50;41.40;;;;;;;12.38;69.90;102013.41;5090567;28;20044;-70
2022/03/17 10:27:55;;;;;;;78.93;39.75;;;;;;;12.38;70.20;102010.66;5091269;28;20051;-69
2022/03/17 10:30:27;;;;;;;73.60;39.95;;;;;;;12.38;70.51;102007.91;5091398;28;20040;-69
2022/03/17 10:32:57;;;;;;;73.32;38.75;;;;;;;12.33;70.86;102007.84;5090870;28;20055;-70
2022/03/17 10:35:31;;;;;;;78.97;37.55;;;;;;;12.65;68.88;102009.03;5090600;28;20056;-70
2022/03/17 10:38:11;;;;;;;78.43;40.27;;;;;;;12.73;67.81;102003.88;5091423;28;20048;-69
2022/03/17 10:40:41;;;;;;;70.65;39.42;;;;;;;12.77;68.24;102006.94;5090268;28;20305;-70
2022/03/17 10:43:20;;;;;;;71.25;38.47;;;;;;;12.69;69.40;102010.97;5090920;28;20071;-70
2022/03/17 10:46:03;;;;;;;74.20;40.42;;;;;;;12.72;70.66;102007.69;5081045;28;20056;-70
2022/03/17 10:48:31;;;;;;;72.60;38.80;;;;;;;12.73;68.78;102003.03;5094223;28;20055;-70
2022/03/17 10:50:59;;;;;;;69.50;37.15;;;;;;;12.75;67.54;102000.84;5094188;28;20044;-70
2022/03/17 10:53:31;;;;;;;66.28;36.78;;;;;;;12.78;68.04;102003.09;5094534;28;20406;-70
2022/03/17 10:56:12;;;;;;;73.25;38.53;;;;;;;12.74;69.04;101999.22;5094260;28;20048;-70
2022/03/17 10:58:43;;;;;;;76.80;39.00;;;;;;;12.84;69.52;102002.06;5094325;28;20063;-70
2022/03/17 11:01:48;;;;;;;71.20;37.53;;;;;;;12.88;68.12;101997.72;5093875;28;20048;-70
2022/03/17 11:04:16;;;;;;;72.18;37.00;;;;;;;12.82;66.97;101996.00;5094840;28;20040;-70
2022/03/17 11:06:44;;;;;;;77.38;38.75;;;;;;;12.99;67.67;102000.53;5094869;28;20059;-70
2022/03/17 11:09:12;;;;;;;71.43;38.25;;;;;;;12.94;68.59;102000.50;5094245;28;20044;-69
2022/03/17 11:11:40;;;;;;;69.00;37.65;;;;;;;13.08;66.68;102004.47;5093087;28;20048;-70
2022/03/17 11:14:13;;;;;;;74.47;38.53;;;;;;;12.99;67.93;101997.78;5093434;28;20048;-70
2022/03/17 11:16:50;;;;;;;78.13;38.38;;;;;;;12.93;67.90;101996.06;5093903;28;20071;-69
2022/03/17 11:19:20;;;;;;;67.07;37.45;;;;;;;13.08;67.58;101998.13;5093839;28;20044;-69
2022/03/17 11:22:04;;;;;;;67.22;37.20;;;;;;;13.23;67.24;101994.69;5093420;28;20513;-69
2022/03/17 11:24:32;;;;;;;79.35;40.72;;;;;;;13.27;66.65;101993.06;5094638;28;20051;-69
2022/03/17 11:27:09;;;;;;;70.55;38.90;;;;;;;13.43;65.92;101988.50;5093410;28;20058;-69
2022/03/17 11:29:44;;;;;;;80.93;39.03;;;;;;;13.78;64.66;101995.34;5092739;28;20048;-70
2022/03/17 11:32:28;;;;;;;74.25;37.63;;;;;;;13.75;63.98;101990.38;5080943;28;20040;-69
2022/03/17 11:35:09;;;;;;;64.90;35.40;;;;;;;13.66;63.93;101980.97;5093250;28;20056;-70
2022/03/17 11:37:37;;;;;;;72.93;37.15;;;;;;;13.81;63.23;101985.72;5094010;28;20051;-69
2022/03/17 11:40:15;;;;;;;65.55;34.83;;;;;;;13.83;62.26;101978.88;5092772;28;20048;-69